Time;durP1;ratioP1;P1;durP2;ratioP2;P2;SDS_P1;SDS_P2;PMS_P1;PMS_P2;Temp;Humidity;BMP_temperature;BMP_pressure;BME280_temperature;BME280_humidity;BME280_pressure;Samples;Min_cycle;Max_cycle;Signal;HPM_P1;HPM_P2
2022/02/23 00:02:07;;;;;;;28.60;8.50;;;;;;;2.16;66.27;98887.38;105891;1279;99319;-70
2022/02/23 00:04:39;;;;;;;26.40;9.10;;;;;;;2.15;66.16;98885.98;105918;1279;112778;-69
2022/02/23 00:07:07;;;;;;;29.60;9.50;;;;;;;2.15;66.37;98886.53;105891;1279;99225;-69
2022/02/23 00:09:35;;;;;;;25.00;7.50;;;;;;;2.15;66.02;98878.48;105745;1279;108342;-70
2022/02/23 00:12:10;;;;;;;26.00;8.00;;;;;;;2.15;66.04;98879.88;105798;1279;99262;-70
2022/02/23 00:14:38;;;;;;;27.20;9.00;;;;;;;2.16;65.90;98881.59;105833;1281;99959;-71
2022/02/23 00:17:06;;;;;;;27.80;8.40;;;;;;;2.17;66.28;98875.61;105831;1279;113157;-70
2022/02/23 00:19:34;;;;;;;29.80;8.40;;;;;;;2.18;66.11;98871.54;105889;1279;99217;-71
2022/02/23 00:22:07;;;;;;;25.40;8.20;;;;;;;2.18;66.01;98865.96;105780;1281;107771;-69
2022/02/23 00:24:35;;;;;;;26.30;7.50;;;;;;;2.18;66.20;98863.67;105779;1280;96698;-69
2022/02/23 00:27:05;;;;;;;29.60;8.10;;;;;;;2.18;66.33;98859.66;105825;1280;99202;-69
2022/02/23 00:29:35;;;;;;;27.20;9.20;;;;;;;2.18;66.34;98858.23;105876;1279;113074;-70
2022/02/23 00:32:11;;;;;;;26.50;8.10;;;;;;;2.19;66.05;98858.38;105912;1279;99732;-71
2022/02/23 00:34:39;;;;;;;27.90;8.50;;;;;;;2.20;66.02;98856.59;105853;1279;107742;-69
2022/02/23 00:37:07;;;;;;;27.70;9.30;;;;;;;2.22;66.27;98854.41;105933;1279;99228;-69
2022/02/23 00:39:35;;;;;;;34.20;9.10;;;;;;;2.23;66.43;98851.58;105976;1279;99319;-69
2022/02/23 00:42:12;;;;;;;26.40;7.90;;;;;;;2.24;65.95;98851.00;105908;1279;115556;-70
2022/02/23 00:44:40;;;;;;;28.30;8.20;;;;;;;2.26;66.18;98846.89;105922;1280;99866;-71
2022/02/23 00:47:12;;;;;;;28.50;8.60;;;;;;;2.28;66.19;98840.70;105870;1279;108186;-69
2022/02/23 00:49:40;;;;;;;27.00;7.40;;;;;;;2.30;65.95;98841.66;105797;1280;99350;-69
2022/02/23 00:52:13;;;;;;;24.30;7.10;;;;;;;2.28;66.37;98834.39;105805;1280;99303;-72
2022/02/23 00:54:41;;;;;;;22.70;7.10;;;;;;;2.27;66.20;98836.70;105778;1280;112782;-70
2022/02/23 00:57:09;;;;;;;26.60;7.50;;;;;;;2.26;66.13;98835.89;105868;1279;97940;-69
2022/02/23 00:59:46;;;;;;;27.30;7.40;;;;;;;2.25;66.39;98833.13;105865;1279;107458;-70
2022/02/23 01:02:14;;;;;;;25.30;8.00;;;;;;;2.25;66.33;98834.48;105912;1279;99355;-70
2022/02/23 01:04:41;;;;;;;28.50;7.80;;;;;;;2.27;66.30;98829.88;105814;1280;99243;-67
2022/02/23 01:07:10;;;;;;;27.20;7.20;;;;;;;2.29;66.09;98824.35;105720;1281;113355;-70
2022/02/23 01:09:40;;;;;;;26.60;7.10;;;;;;;2.30;66.22;98822.91;105715;1281;99359;-70
2022/02/23 01:12:12;;;;;;;34.20;6.60;;;;;;;2.31;66.37;98817.64;105808;1279;107757;-68
2022/02/23 01:14:40;;;;;;;26.00;7.40;;;;;;;2.33;66.43;98815.98;105816;1279;96704;-70
2022/02/23 01:17:12;;;;;;;24.90;7.10;;;;;;;2.33;66.29;98810.21;105791;1279;99317;-69
2022/02/23 01:19:40;;;;;;;29.10;8.30;;;;;;;2.33;66.25;98802.84;105908;1279;113541;-70
2022/02/23 01:22:08;;;;;;;27.50;7.40;;;;;;;2.33;66.31;98798.80;105837;1279;99369;-68
2022/02/23 01:24:36;;;;;;;24.30;7.50;;;;;;;2.35;66.43;98795.75;105927;1279;108350;-68
2022/02/23 01:27:04;;;;;;;26.90;6.40;;;;;;;2.37;66.52;98792.01;105904;1279;99232;-71
2022/02/23 01:29:32;;;;;;;21.50;5.80;;;;;;;2.38;66.19;98788.13;105904;1279;96734;-71
2022/02/23 01:32:09;;;;;;;23.10;6.40;;;;;;;2.40;66.13;98781.23;105959;1279;113194;-69
2022/02/23 01:34:42;;;;;;;23.50;6.80;;;;;;;2.41;66.13;98777.84;105911;1279;99349;-67
2022/02/23 01:37:09;;;;;;;28.60;8.00;;;;;;;2.44;66.50;98778.42;105849;1279;106836;-67
2022/02/23 01:39:37;;;;;;;26.40;6.00;;;;;;;2.45;66.25;98769.23;105895;1279;99326;-66
2022/02/23 01:42:15;;;;;;;25.70;7.10;;;;;;;2.46;66.39;98771.48;105916;1279;99334;-67
2022/02/23 01:44:43;;;;;;;26.90;7.10;;;;;;;2.47;66.30;98769.87;105850;1279;113746;-69
2022/02/23 01:47:11;;;;;;;23.40;6.50;;;;;;;2.49;66.25;98767.33;105883;1279;96728;-68
2022/02/23 01:49:43;;;;;;;24.10;6.70;;;;;;;2.52;66.24;98765.79;105793;1279;107652;-69
2022/02/23 01:52:11;;;;;;;22.30;5.70;;;;;;;2.52;66.24;98766.31;105859;1279;99823;-68
2022/02/23 01:54:39;;;;;;;22.30;6.80;;;;;;;2.53;66.35;98766.24;105883;1279;99251;-68
2022/02/23 01:57:11;;;;;;;28.00;7.30;;;;;;;2.52;66.16;98766.46;105813;1279;113448;-67
2022/02/23 01:59:39;;;;;;;21.10;5.50;;;;;;;2.52;66.05;98762.27;105829;1279;99129;-69
2022/02/23 02:02:14;;;;;;;25.60;6.50;;;;;;;2.51;66.34;98764.07;105867;1279;107753;-70
2022/02/23 02:04:42;;;;;;;24.90;6.60;;;;;;;2.50;66.30;98761.02;105722;1279;99249;-71
2022/02/23 02:07:15;;;;;;;22.80;6.60;;;;;;;2.45;66.17;98760.64;105916;1279;96669;-71
2022/02/23 02:09:43;;;;;;;24.30;6.70;;;;;;;2.44;66.23;98757.75;105885;1279;112521;-70
2022/02/23 02:12:16;;;;;;;18.00;5.10;;;;;;;2.41;66.24;98755.61;105851;1279;96625;-71
2022/02/23 02:14:44;;;;;;;22.60;7.00;;;;;;;2.40;66.04;98760.58;105852;1279;107920;-71
2022/02/23 02:17:22;;;;;;;25.70;7.20;;;;;;;2.38;66.30;98759.44;105811;1279;99228;-71
2022/02/23 02:19:50;;;;;;;26.90;7.00;;;;;;;2.36;66.19;98758.45;105945;1279;96689;-70
2022/02/23 02:22:22;;;;;;;26.20;7.80;;;;;;;2.36;65.98;98753.54;105899;1279;112410;-69
2022/02/23 02:24:51;;;;;;;24.50;6.90;;;;;;;2.35;66.31;98752.54;105852;1279;99253;-68
2022/02/23 02:27:19;;;;;;;24.20;7.60;;;;;;;2.35;66.00;98751.32;105858;1279;107451;-69
2022/02/23 02:29:47;;;;;;;25.20;7.30;;;;;;;2.35;66.02;98751.17;105812;1281;99320;-69
2022/02/23 02:32:19;;;;;;;25.70;7.90;;;;;;;2.34;66.03;98748.55;105848;1279;96692;-66
2022/02/23 02:34:52;;;;;;;30.30;7.70;;;;;;;2.33;66.24;98749.46;105923;1279;113427;-67
2022/02/23 02:37:20;;;;;;;24.80;6.20;;;;;;;2.33;66.31;98748.79;105891;1279;97858;-70
2022/02/23 02:39:51;;;;;;;25.70;7.60;;;;;;;2.31;66.14;98744.86;105905;1279;108314;-69
2022/02/23 02:42:27;;;;;;;25.20;7.20;;;;;;;2.27;66.07;98745.88;105945;1279;99246;-67
2022/02/23 02:44:55;;;;;;;27.60;8.40;;;;;;;2.24;66.17;98744.98;105872;1281;99300;-69
2022/02/23 02:47:24;;;;;;;27.70;7.40;;;;;;;2.22;66.08;98742.76;105906;1279;113363;-70
2022/02/23 02:49:52;;;;;;;22.70;7.00;;;;;;;2.21;66.20;98740.36;105873;1279;99084;-70
2022/02/23 02:52:24;;;;;;;24.90;7.60;;;;;;;2.21;66.02;98733.73;105918;1281;108438;-70
2022/02/23 02:54:56;;;;;;;24.10;6.80;;;;;;;2.19;66.07;98721.60;105927;1279;99305;-67
2022/02/23 02:57:24;;;;;;;27.30;8.90;;;;;;;2.18;65.83;98721.75;105888;1279;96751;-67
2022/02/23 02:59:52;;;;;;;25.20;7.90;;;;;;;2.18;66.01;98720.73;105870;1279;113381;-68
2022/02/23 03:02:20;;;;;;;26.50;7.60;;;;;;;2.16;66.13;98722.91;105940;1279;99205;-70
2022/02/23 03:04:48;;;;;;;26.20;7.60;;;;;;;2.16;66.11;98730.11;105859;1279;108440;-66
2022/02/23 03:07:17;;;;;;;26.90;8.80;;;;;;;2.14;66.12;98725.11;105896;1279;99227;-69
2022/02/23 03:09:49;;;;;;;27.40;8.10;;;;;;;2.12;66.34;98726.06;105935;1280;99362;-67
2022/02/23 03:12:21;;;;;;;26.70;7.20;;;;;;;2.12;65.87;98724.67;105929;1279;114878;-67
2022/02/23 03:14:49;;;;;;;34.10;8.80;;;;;;;2.13;66.07;98724.13;105888;1279;96551;-67
2022/02/23 03:17:21;;;;;;;23.90;7.60;;;;;;;2.13;66.06;98726.37;105848;1279;108378;-68
2022/02/23 03:19:49;;;;;;;22.30;6.50;;;;;;;2.13;65.97;98725.33;105831;1279;99314;-67
2022/02/23 03:22:17;;;;;;;25.50;7.20;;;;;;;2.13;65.97;98722.01;105824;1281;99920;-69
2022/02/23 03:24:45;;;;;;;26.80;7.80;;;;;;;2.14;66.13;98720.23;105903;1279;113444;-69
2022/02/23 03:27:12;;;;;;;24.50;7.10;;;;;;;2.14;66.27;98713.23;105880;1279;99849;-66
2022/02/23 03:29:40;;;;;;;23.80;6.70;;;;;;;2.13;65.78;98704.84;105892;1279;107710;-69
2022/02/23 03:32:13;;;;;;;25.10;7.00;;;;;;;2.13;66.09;98695.40;105858;1279;99843;-69
2022/02/23 03:34:45;;;;;;;19.20;5.00;;;;;;;2.12;66.05;98684.95;103246;1279;3641259;-68
2022/02/23 03:37:13;;;;;;;26.20;7.00;;;;;;;2.11;65.88;98683.80;105893;1279;99247;-71
2022/02/23 03:39:49;;;;;;;28.40;7.50;;;;;;;2.11;66.10;98694.13;105870;1279;96555;-68
2022/02/23 03:42:26;;;;;;;23.80;6.10;;;;;;;2.11;66.34;98687.10;105878;1279;108326;-69
2022/02/23 03:44:53;;;;;;;23.70;6.10;;;;;;;2.12;65.71;98679.70;105831;1280;99377;-69
2022/02/23 03:47:26;;;;;;;18.70;5.70;;;;;;;2.12;65.95;98684.26;105921;1279;99326;-69
2022/02/23 03:49:54;;;;;;;23.80;5.90;;;;;;;2.13;66.06;98683.34;105932;1279;112765;-69
2022/02/23 03:52:22;;;;;;;23.70;5.80;;;;;;;2.13;66.10;98682.29;105921;1279;99323;-68
2022/02/23 03:54:50;;;;;;;23.40;5.80;;;;;;;2.16;65.94;98688.64;105839;1279;109038;-68
2022/02/23 03:57:17;;;;;;;27.80;6.20;;;;;;;2.18;65.99;98687.64;105848;1279;96717;-69
2022/02/23 03:59:45;;;;;;;23.20;6.20;;;;;;;2.21;65.99;98689.08;105911;1279;99224;-69
2022/02/23 04:02:14;;;;;;;23.80;6.00;;;;;;;2.23;65.92;98689.55;105861;1279;113315;-69
2022/02/23 04:04:42;;;;;;;22.60;5.60;;;;;;;2.26;65.88;98694.66;105941;1279;99059;-68
2022/02/23 04:07:12;;;;;;;21.50;5.40;;;;;;;2.29;66.31;98692.27;105908;1279;107868;-71
2022/02/23 04:09:48;;;;;;;19.80;6.40;;;;;;;2.31;66.14;98692.67;105894;1279;99242;-69
2022/02/23 04:12:24;;;;;;;18.60;4.70;;;;;;;2.34;66.11;98687.48;105875;1279;96536;-70
2022/02/23 04:14:55;;;;;;;22.10;6.20;;;;;;;2.37;65.91;98691.04;105922;1279;112786;-69
2022/02/23 04:17:28;;;;;;;25.90;5.90;;;;;;;2.39;65.95;98689.21;105927;1279;99251;-70
2022/02/23 04:19:56;;;;;;;22.70;5.50;;;;;;;2.40;65.92;98691.10;105910;1279;108390;-69
2022/02/23 04:22:24;;;;;;;20.30;5.20;;;;;;;2.42;65.85;98691.52;105878;1279;99393;-69
2022/02/23 04:24:52;;;;;;;21.90;5.90;;;;;;;2.44;65.93;98689.85;105870;1279;97962;-68
2022/02/23 04:27:29;;;;;;;16.80;4.80;;;;;;;2.47;65.89;98692.01;105923;1279;113280;-69
2022/02/23 04:30:01;;;;;;;18.10;5.00;;;;;;;2.48;65.90;98688.10;105935;1279;99330;-70
2022/02/23 04:32:28;;;;;;;21.90;5.30;;;;;;;2.49;65.85;98688.02;105865;1279;108357;-68
2022/02/23 04:34:59;;;;;;;21.90;5.80;;;;;;;2.50;65.89;98689.36;105840;1279;99363;-69
2022/02/23 04:37:31;;;;;;;23.20;5.70;;;;;;;2.51;65.92;98689.15;105938;1279;99215;-68
2022/02/23 04:40:07;;;;;;;19.10;5.50;;;;;;;2.53;65.94;98691.88;105887;1279;113046;-69
2022/02/23 04:42:35;;;;;;;20.40;5.40;;;;;;;2.55;65.75;98695.14;105822;1278;99362;-68
2022/02/23 04:45:05;;;;;;;21.30;5.80;;;;;;;2.57;65.60;98699.05;105776;1281;108277;-69
2022/02/23 04:47:35;;;;;;;22.00;6.90;;;;;;;2.59;65.82;98703.35;105823;1279;99293;-69
2022/02/23 04:50:06;;;;;;;27.70;7.50;;;;;;;2.60;65.59;98705.60;105755;1281;96540;-70
2022/02/23 04:52:34;;;;;;;30.80;8.70;;;;;;;2.61;65.61;98705.87;105791;1279;113481;-69
2022/02/23 04:55:08;;;;;;;36.50;10.60;;;;;;;2.62;65.61;98703.91;105933;1281;100021;-71
2022/02/23 04:57:36;;;;;;;56.80;17.90;;;;;;;2.62;65.67;98705.85;105871;1279;107698;-70
2022/02/23 05:00:08;;;;;;;51.50;16.50;;;;;;;2.61;65.27;98703.42;105829;1281;99236;-69
2022/02/23 05:02:36;;;;;;;50.80;16.20;;;;;;;2.62;65.20;98709.35;105706;1279;99342;-71
2022/02/23 05:05:04;;;;;;;41.40;12.50;;;;;;;2.61;65.52;98706.92;105897;1279;111734;-72
2022/02/23 05:07:37;;;;;;;36.80;10.80;;;;;;;2.63;65.74;98707.55;106031;1278;99330;-73
2022/02/23 05:10:08;;;;;;;29.20;8.90;;;;;;;2.64;65.18;98704.87;105884;1278;108853;-68
2022/02/23 05:12:37;;;;;;;25.40;7.50;;;;;;;2.63;65.63;98699.98;105855;1278;99239;-69
2022/02/23 05:15:16;;;;;;;22.70;5.90;;;;;;;2.62;64.98;98700.75;105866;1279;100355;-70
2022/02/23 05:17:43;;;;;;;26.50;7.00;;;;;;;2.62;65.20;98701.98;105777;1281;112693;-71
2022/02/23 05:20:12;;;;;;;19.10;5.20;;;;;;;2.64;65.37;98694.51;105776;1281;99242;-68
2022/02/23 05:22:40;;;;;;;23.60;5.10;;;;;;;2.66;65.41;98697.63;105761;1281;107784;-69
2022/02/23 05:25:09;;;;;;;24.00;5.60;;;;;;;2.67;65.25;98699.49;105749;1281;96607;-69
2022/02/23 05:27:43;;;;;;;18.80;5.30;;;;;;;2.69;65.50;98696.23;105818;1281;99270;-69
2022/02/23 05:30:13;;;;;;;21.80;5.80;;;;;;;2.71;64.97;98699.67;105898;1280;112757;-69
2022/02/23 05:32:42;;;;;;;18.00;5.40;;;;;;;2.70;64.82;98699.86;105893;1281;100374;-68
2022/02/23 05:35:12;;;;;;;23.10;6.50;;;;;;;2.71;65.12;98705.96;105878;1279;108509;-67
2022/02/23 05:37:40;;;;;;;20.10;5.30;;;;;;;2.71;64.98;98706.11;105874;1279;96686;-67
2022/02/23 05:40:12;;;;;;;16.50;4.70;;;;;;;2.71;65.31;98703.67;105706;1281;99228;-68
2022/02/23 05:42:40;;;;;;;22.50;5.30;;;;;;;2.71;65.08;98702.27;105822;1278;114128;-69
2022/02/23 05:45:11;;;;;;;22.00;5.50;;;;;;;2.71;64.73;98705.43;105858;1279;99280;-69
2022/02/23 05:47:44;;;;;;;20.10;5.00;;;;;;;2.71;65.06;98702.27;105567;1281;107733;-68
2022/02/23 05:50:13;;;;;;;22.40;5.80;;;;;;;2.71;64.93;98697.38;105759;1281;97071;-67
2022/02/23 05:52:45;;;;;;;24.80;5.40;;;;;;;2.72;64.68;98697.48;105863;1281;99301;-64
2022/02/23 05:55:17;;;;;;;19.50;4.60;;;;;;;2.75;65.00;98700.89;105734;1281;113422;-69
2022/02/23 05:57:45;;;;;;;17.30;4.80;;;;;;;2.77;64.96;98710.23;105821;1281;97682;-70
2022/02/23 06:00:20;;;;;;;16.50;4.50;;;;;;;2.80;64.70;98714.83;105823;1281;107398;-69
2022/02/23 06:02:48;;;;;;;17.50;4.90;;;;;;;2.81;64.93;98714.41;105811;1281;96664;-68
2022/02/23 06:05:15;;;;;;;19.20;4.50;;;;;;;2.82;64.60;98714.02;105772;1281;99341;-70
2022/02/23 06:07:43;;;;;;;17.80;4.50;;;;;;;2.83;64.66;98710.98;105718;1281;113192;-70
2022/02/23 06:10:19;;;;;;;16.10;4.40;;;;;;;2.85;64.72;98712.30;105707;1281;96752;-69
2022/02/23 06:12:47;;;;;;;16.30;4.50;;;;;;;2.88;64.60;98724.77;105785;1281;108378;-70
2022/02/23 06:15:15;;;;;;;18.80;4.60;;;;;;;2.91;64.65;98727.95;105773;1280;99386;-68
2022/02/23 06:17:47;;;;;;;16.80;5.10;;;;;;;2.95;64.44;98736.01;105879;1281;99241;-70
2022/02/23 06:20:15;;;;;;;16.20;4.50;;;;;;;3.01;64.44;98745.23;105725;1280;113299;-67
2022/02/23 06:22:43;;;;;;;19.20;6.40;;;;;;;3.05;64.50;98755.18;105838;1281;99339;-71
2022/02/23 06:25:14;;;;;;;17.40;4.70;;;;;;;3.07;64.35;98756.63;105692;1281;108398;-69
2022/02/23 06:27:43;;;;;;;15.20;4.70;;;;;;;3.05;64.39;98758.70;105854;1281;99378;-69
2022/02/23 06:30:14;;;;;;;13.70;4.10;;;;;;;2.98;63.87;98761.27;105740;1281;97018;-69
2022/02/23 06:32:46;;;;;;;15.80;4.30;;;;;;;2.91;64.05;98767.02;105809;1281;112834;-69
2022/02/23 06:35:14;;;;;;;17.90;5.10;;;;;;;2.81;64.24;98766.24;105822;1281;99295;-70
2022/02/23 06:37:42;;;;;;;17.40;5.20;;;;;;;2.73;64.09;98770.29;105807;1281;108174;-68
2022/02/23 06:40:14;;;;;;;15.20;4.50;;;;;;;2.65;64.13;98770.63;105749;1279;99257;-71
2022/02/23 06:42:43;;;;;;;16.30;4.50;;;;;;;2.55;64.32;98775.66;105842;1279;99258;-68
2022/02/23 06:45:12;;;;;;;19.10;4.70;;;;;;;2.42;64.46;98778.11;105874;1279;112989;-70
2022/02/23 06:47:43;;;;;;;18.50;4.80;;;;;;;2.35;64.62;98779.64;105984;1279;99337;-69
2022/02/23 06:50:17;;;;;;;17.40;4.70;;;;;;;2.31;64.43;98780.89;105900;1279;108502;-70
2022/02/23 06:52:47;;;;;;;14.70;5.00;;;;;;;2.24;64.50;98784.51;105847;1279;99267;-70
2022/02/23 06:55:17;;;;;;;17.30;4.80;;;;;;;2.17;64.54;98786.55;105917;1279;99199;-71
2022/02/23 06:57:45;;;;;;;14.40;5.00;;;;;;;2.11;64.40;98784.37;105881;1279;114126;-67
2022/02/23 07:00:19;;;;;;;18.90;4.80;;;;;;;2.06;64.69;98787.70;105871;1279;99255;-69
2022/02/23 07:02:49;;;;;;;17.20;4.80;;;;;;;2.02;64.70;98788.23;105819;1281;107739;-70
2022/02/23 07:05:25;;;;;;;;;;;;;;;1.97;64.60;98790.54;105785;1280;100478;-70
2022/02/23 07:07:53;;;;;;;15.40;5.20;;;;;;;1.92;64.64;98790.22;105802;1279;99234;-69
2022/02/23 07:10:32;;;;;;;18.00;5.10;;;;;;;1.93;65.04;98795.08;105865;1281;113467;-64
2022/02/23 07:13:06;;;;;;;18.50;5.50;;;;;;;1.88;64.87;98794.06;105911;1280;99258;-69
2022/02/23 07:15:39;;;;;;;18.50;5.20;;;;;;;1.86;65.00;98796.59;105779;1280;107642;-69
2022/02/23 07:18:06;;;;;;;18.50;4.90;;;;;;;1.86;65.08;98803.92;105733;1280;99302;-70
2022/02/23 07:20:39;;;;;;;19.20;4.70;;;;;;;1.86;65.18;98807.08;105749;1281;99127;-69
2022/02/23 07:23:07;;;;;;;17.30;5.20;;;;;;;1.84;65.30;98807.17;105748;1279;113324;-69
2022/02/23 07:25:39;;;;;;;19.50;5.60;;;;;;;1.83;65.63;98808.63;105782;1279;99202;-69
2022/02/23 07:28:07;;;;;;;17.80;5.50;;;;;;;1.80;65.67;98813.99;105775;1280;108426;-70
2022/02/23 07:30:54;;;;;;;18.40;5.00;;;;;;;1.77;65.74;98825.79;105769;1279;99234;-70
2022/02/23 07:33:26;;;;;;;15.50;4.50;;;;;;;1.78;66.29;98828.92;105807;1280;99325;-70
2022/02/23 07:35:54;;;;;;;16.90;5.00;;;;;;;1.77;66.26;98837.69;105761;1281;113427;-70
2022/02/23 07:38:22;;;;;;;15.70;4.30;;;;;;;1.76;66.39;98842.83;105795;1281;99234;-69
2022/02/23 07:40:50;;;;;;;18.50;5.60;;;;;;;1.76;66.48;98846.83;105775;1281;108350;-69
2022/02/23 07:43:38;;;;;;;20.30;5.10;;;;;;;1.76;66.61;98848.75;105754;1281;99365;-69
2022/02/23 07:46:14;;;;;;;14.40;5.20;;;;;;;1.76;66.64;98851.55;105778;1281;99359;-69
2022/02/23 07:48:47;;;;;;;12.50;4.30;;;;;;;1.77;66.82;98853.42;105635;1281;112375;-67
2022/02/23 07:51:16;;;;;;;17.40;5.30;;;;;;;1.78;67.13;98860.58;105790;1281;97951;-67
2022/02/23 07:53:50;;;;;;;14.90;5.20;;;;;;;1.81;67.41;98860.83;105758;1281;108471;-69
2022/02/23 07:56:26;;;;;;;;;;;;;;;1.80;67.48;98861.70;105764;1281;97812;-70
2022/02/23 07:58:59;;;;;;;14.50;5.80;;;;;;;1.80;67.54;98865.05;105831;1281;99338;-68
2022/02/23 08:01:40;;;;;;;14.40;5.10;;;;;;;1.82;67.59;98868.65;105792;1281;113721;-72
2022/02/23 08:04:12;;;;;;;11.40;4.30;;;;;;;1.84;67.74;98861.70;105789;1281;99471;-73
2022/02/23 08:06:40;;;;;;;12.70;4.30;;;;;;;1.87;67.49;98868.94;105903;1281;107800;-71
2022/02/23 08:09:10;;;;;;;12.00;4.40;;;;;;;1.93;67.88;98866.95;105880;1279;99240;-72
2022/02/23 08:11:39;;;;;;;11.70;4.20;;;;;;;1.99;67.84;98869.70;105831;1279;98573;-73
2022/02/23 08:14:09;;;;;;;12.00;5.10;;;;;;;2.03;68.01;98871.77;105754;1280;112738;-69
2022/02/23 08:19:34;;;;;;;11.30;3.80;;;;;;;2.16;68.81;98866.73;105795;1279;108463;-69
2022/02/23 08:22:14;;;;;;;12.80;4.60;;;;;;;2.21;68.53;98871.61;105818;1278;99355;-68
2022/02/23 08:24:48;;;;;;;11.20;4.30;;;;;;;2.28;68.75;98873.23;105711;1279;99201;-68
2022/02/23 08:27:19;;;;;;;14.70;5.10;;;;;;;2.34;68.70;98871.04;105792;1279;112844;-68
2022/02/23 08:29:49;;;;;;;13.30;4.90;;;;;;;2.38;68.99;98873.69;105744;1279;99434;-69
2022/02/23 08:32:20;;;;;;;13.20;5.40;;;;;;;2.41;68.97;98876.70;105657;1279;108975;-68
2022/02/23 08:34:51;;;;;;;15.50;5.80;;;;;;;2.46;69.00;98881.04;105880;1279;99234;-70
2022/02/23 08:37:20;;;;;;;16.10;6.10;;;;;;;2.50;68.84;98887.89;105731;1279;99290;-69
2022/02/23 08:39:50;;;;;;;17.80;6.10;;;;;;;2.54;69.01;98887.38;105882;1279;113407;-69
2022/02/23 08:42:18;;;;;;;17.10;5.70;;;;;;;2.59;69.00;98891.20;105841;1279;99328;-69
2022/02/23 08:44:49;;;;;;;18.90;6.50;;;;;;;2.64;69.13;98890.10;105759;1280;109306;-68
2022/02/23 08:47:25;;;;;;;19.50;6.90;;;;;;;2.70;69.09;98892.13;105840;1279;97678;-69
2022/02/23 08:49:57;;;;;;;16.30;5.80;;;;;;;2.76;69.30;98892.38;105738;1279;99161;-67
2022/02/23 08:52:28;;;;;;;22.20;5.80;;;;;;;2.82;69.24;98888.81;105879;1279;113679;-70
2022/02/23 08:55:08;;;;;;;18.60;6.10;;;;;;;2.88;69.61;98891.70;105872;1279;100046;-70
2022/02/23 08:57:36;;;;;;;17.10;6.50;;;;;;;2.93;69.65;98895.16;105780;1279;107754;-69
2022/02/23 09:00:08;;;;;;;19.30;7.20;;;;;;;2.97;69.63;98897.96;105745;1279;99311;-69
2022/02/23 09:02:35;;;;;;;19.00;8.20;;;;;;;3.02;69.46;98897.39;105872;1279;99305;-70
2022/02/23 09:05:04;;;;;;;18.00;6.70;;;;;;;3.08;69.78;98900.60;105795;1282;112786;-67
2022/02/23 09:07:32;;;;;;;20.60;6.40;;;;;;;3.13;69.82;98905.13;105881;1281;99217;-68
2022/02/23 09:10:07;;;;;;;18.20;6.50;;;;;;;3.17;69.91;98905.30;105726;1279;108515;-70
2022/02/23 09:12:35;;;;;;;17.70;5.60;;;;;;;3.23;69.79;98907.33;105718;1279;99223;-69
2022/02/23 09:15:09;;;;;;;17.10;6.50;;;;;;;3.27;70.19;98913.77;105757;1279;97350;-69
2022/02/23 09:17:37;;;;;;;20.80;6.10;;;;;;;3.34;69.97;98914.02;105695;1282;112766;-69
2022/02/23 09:20:08;;;;;;;20.90;6.70;;;;;;;3.41;70.12;98916.15;105750;1281;99235;-69
2022/02/23 09:22:38;;;;;;;20.60;7.40;;;;;;;3.49;70.02;98917.91;105824;1281;107772;-70
2022/02/23 09:25:09;;;;;;;21.40;6.90;;;;;;;3.56;70.04;98913.35;105801;1281;99374;-69
2022/02/23 09:27:39;;;;;;;17.80;6.40;;;;;;;3.64;70.16;98920.02;105816;1281;99208;-69
2022/02/23 09:30:12;;;;;;;21.90;7.60;;;;;;;3.70;70.01;98923.90;105879;1279;113367;-70
2022/02/23 09:32:49;;;;;;;21.00;6.20;;;;;;;3.77;71.02;98932.37;105845;1279;99236;-68
2022/02/23 09:35:24;;;;;;;22.90;6.80;;;;;;;3.82;70.96;98932.68;105855;1279;107693;-69
2022/02/23 09:37:57;;;;;;;16.60;5.60;;;;;;;3.87;71.54;98934.20;105709;1279;100088;-71
2022/02/23 09:40:25;;;;;;;18.20;6.90;;;;;;;3.93;70.88;98929.70;105764;1279;99162;-71
2022/02/23 09:43:04;;;;;;;21.70;7.70;;;;;;;4.01;70.84;98928.62;105851;1279;112663;-71
2022/02/23 09:45:41;;;;;;;22.60;6.90;;;;;;;4.09;70.60;98930.33;105836;1279;99311;-73
2022/02/23 09:48:15;;;;;;;18.70;5.60;;;;;;;4.20;70.91;98933.67;105852;1279;107860;-69
2022/02/23 09:50:43;;;;;;;20.20;7.20;;;;;;;4.33;71.15;98928.11;105877;1279;99331;-71
2022/02/23 09:53:16;;;;;;;15.90;6.10;;;;;;;4.44;70.72;98925.65;105932;1279;96691;-70
2022/02/23 09:55:57;;;;;;;25.00;7.90;;;;;;;4.56;71.16;98932.63;105927;1279;113494;-69
2022/02/23 09:58:30;;;;;;;19.90;7.40;;;;;;;4.68;70.77;98927.48;105618;1280;99247;-71
2022/02/23 10:01:10;;;;;;;23.40;7.00;;;;;;;4.83;70.73;98932.34;105767;1279;107864;-70
2022/02/23 10:03:39;;;;;;;19.00;6.10;;;;;;;4.94;70.66;98945.84;105724;1279;97333;-71
2022/02/23 10:06:18;;;;;;;16.00;5.00;;;;;;;4.98;70.79;98963.04;105868;1279;97029;-72
2022/02/23 10:09:05;;;;;;;17.40;5.70;;;;;;;4.88;70.48;98962.13;105876;1280;112510;-71
2022/02/23 10:11:40;;;;;;;14.60;5.20;;;;;;;4.76;70.55;98962.36;105836;1281;99912;-70
2022/02/23 10:14:14;;;;;;;17.30;5.80;;;;;;;4.67;70.62;98968.10;105761;1280;107743;-71
2022/02/23 10:16:47;;;;;;;14.60;4.70;;;;;;;4.61;70.81;98965.39;105826;1279;99130;-71
2022/02/23 10:19:22;;;;;;;17.80;4.70;;;;;;;4.53;70.95;98966.13;105835;1279;99242;-70
2022/02/23 10:22:00;;;;;;;12.60;4.10;;;;;;;4.48;71.19;98963.77;105807;1280;113325;-71
2022/02/23 10:24:29;;;;;;;12.30;4.10;;;;;;;4.44;71.02;98967.30;105859;1281;99233;-71
2022/02/23 10:26:57;;;;;;;12.50;3.40;;;;;;;4.39;71.12;98975.94;105697;1281;107704;-69
2022/02/23 10:29:34;;;;;;;15.00;3.90;;;;;;;4.36;71.20;98975.59;105840;1279;99362;-69
2022/02/23 10:32:09;;;;;;;9.40;3.30;;;;;;;4.36;71.09;98976.63;105835;1279;99312;-70
2022/02/23 10:34:42;;;;;;;8.00;2.80;;;;;;;4.38;71.11;98985.33;106262;1279;112731;-68
2022/02/23 10:37:26;;;;;;;13.70;3.40;;;;;;;4.39;70.70;98986.30;106864;1279;99261;-70
2022/02/23 10:40:00;;;;;;;14.80;3.70;;;;;;;4.44;70.91;98994.13;105841;1279;108009;-69
2022/02/23 10:42:34;;;;;;;10.60;3.20;;;;;;;4.48;71.03;98992.73;105745;1279;99273;-69
2022/02/23 10:45:06;;;;;;;;;;;;;;;4.50;70.67;98997.38;105753;1279;99943;-68
2022/02/23 10:47:37;;;;;;;10.50;3.50;;;;;;;4.53;70.86;98993.52;107493;1279;111701;-70
2022/02/23 10:50:08;;;;;;;14.30;3.90;;;;;;;4.66;70.85;98995.55;105802;1279;99195;-70
2022/02/23 10:52:39;;;;;;;12.30;3.80;;;;;;;4.79;71.38;98996.50;105711;1279;107491;-71
2022/02/23 10:55:22;;;;;;;12.90;3.30;;;;;;;4.82;70.88;98996.50;105879;1279;99244;-70
2022/02/23 10:58:00;;;;;;;13.20;4.30;;;;;;;4.89;70.73;98999.98;106000;1279;99326;-69
2022/02/23 11:00:31;;;;;;;15.40;4.30;;;;;;;4.98;70.87;98998.55;105972;1279;112847;-70
2022/02/23 11:03:03;;;;;;;13.30;4.00;;;;;;;5.07;70.83;98995.95;105979;1279;99103;-68
2022/02/23 11:05:34;;;;;;;15.90;4.10;;;;;;;5.15;70.88;98988.71;105969;1279;108393;-67
2022/02/23 11:08:11;;;;;;;17.20;4.90;;;;;;;5.23;70.69;98995.17;105938;1279;99243;-70
2022/02/23 11:10:43;;;;;;;16.70;4.50;;;;;;;5.31;70.70;98994.39;105938;1279;99931;-70
2022/02/23 11:13:17;;;;;;;13.30;3.70;;;;;;;5.34;70.54;98988.25;105844;1279;112769;-71
2022/02/23 11:15:54;;;;;;;17.00;4.00;;;;;;;5.39;70.68;98987.66;105932;1279;98892;-69
2022/02/23 11:18:30;;;;;;;20.80;4.60;;;;;;;5.45;70.68;98981.71;105878;1279;107902;-71
2022/02/23 11:20:59;;;;;;;17.00;5.10;;;;;;;5.61;70.78;98984.02;105868;1279;96639;-70
2022/02/23 11:23:32;;;;;;;14.00;4.20;;;;;;;5.75;70.80;98987.67;105927;1279;96745;-71
2022/02/23 11:26:01;;;;;;;20.00;4.80;;;;;;;5.87;70.54;98987.73;105928;1279;112423;-71
2022/02/23 11:28:38;;;;;;;21.50;4.90;;;;;;;6.00;70.44;98981.38;105948;1279;99315;-70
2022/02/23 11:31:16;;;;;;;13.40;3.60;;;;;;;6.21;70.48;98981.12;105910;1279;107992;-71
2022/02/23 11:33:46;;;;;;;13.90;4.00;;;;;;;6.40;70.15;98986.76;105896;1279;99214;-69
2022/02/23 11:36:29;;;;;;;16.90;5.10;;;;;;;6.53;70.28;98981.98;105938;1279;96737;-70
2022/02/23 11:39:01;;;;;;;15.90;4.20;;;;;;;6.62;69.66;98979.21;105951;1279;112873;-70
2022/02/23 11:41:33;;;;;;;15.10;4.20;;;;;;;6.69;69.88;98976.67;105989;1279;99009;-71
2022/02/23 11:44:30;;;;;;;18.90;4.50;;;;;;;6.79;69.66;98980.85;105836;1280;106734;-71